createdAt,value
2023-05-09T00:00:51.359Z,101588.00
2023-05-09T00:03:18.320Z,101590.00
2023-05-09T00:05:46.177Z,101582.00
2023-05-09T00:08:13.755Z,101574.00
2023-05-09T00:10:40.647Z,101578.00
2023-05-09T00:13:08.060Z,101583.00
2023-05-09T00:15:35.683Z,101585.00
2023-05-09T00:18:02.584Z,101589.00
2023-05-09T00:20:29.497Z,101591.00
2023-05-09T00:22:56.906Z,101585.00
2023-05-09T00:25:23.821Z,101575.00
2023-05-09T00:27:50.694Z,101579.00
2023-05-09T00:30:17.657Z,101567.00
2023-05-09T00:32:45.195Z,101574.00
2023-05-09T00:35:12.283Z,101575.00
2023-05-09T00:37:39.273Z,101570.00
2023-05-09T00:40:07.583Z,101572.00
2023-05-09T00:42:35.391Z,101566.00
2023-05-09T00:45:02.662Z,101573.00
2023-05-09T00:47:29.911Z,101560.00
2023-05-09T00:49:58.421Z,101549.00
2023-05-09T00:52:26.559Z,101561.00
2023-05-09T00:54:55.538Z,101563.00
2023-05-09T00:57:23.385Z,101556.00
2023-05-09T00:59:50.842Z,101545.00
2023-05-09T01:02:18.764Z,101554.00
2023-05-09T01:04:46.900Z,101558.00
2023-05-09T01:07:49.920Z,101556.00
2023-05-09T01:10:43.454Z,101553.00
2023-05-09T01:13:21.599Z,101562.00
2023-05-09T01:16:01.473Z,101522.00
2023-05-09T01:19:12.296Z,101556.00
2023-05-09T01:21:44.320Z,101557.00
2023-05-09T01:24:26.278Z,101554.00
2023-05-09T01:27:21.969Z,101552.00
2023-05-09T01:29:59.557Z,101547.00
2023-05-09T01:32:32.521Z,101551.00
2023-05-09T01:35:04.447Z,101541.00
2023-05-09T01:37:39.580Z,101554.00
2023-05-09T01:40:17.266Z,101546.00
2023-05-09T01:42:52.541Z,101544.00
2023-05-09T01:45:21.085Z,101547.00
2023-05-09T01:47:50.791Z,101544.00
2023-05-09T01:50:19.952Z,101542.00
2023-05-09T01:52:55.104Z,101542.00
2023-05-09T01:55:26.985Z,101549.00
2023-05-09T01:57:55.894Z,101547.00
2023-05-09T02:00:24.594Z,101548.00
2023-05-09T02:02:53.317Z,101541.00
2023-05-09T02:05:21.679Z,101532.00
2023-05-09T02:07:49.900Z,101550.00
2023-05-09T02:10:17.327Z,101537.00
2023-05-09T02:12:44.290Z,101550.00
2023-05-09T02:15:11.538Z,101545.00
2023-05-09T02:17:39.119Z,101543.00
2023-05-09T02:20:09.776Z,101549.00
2023-05-09T02:22:38.691Z,101545.00
2023-05-09T02:25:07.490Z,101542.00
2023-05-09T02:27:36.941Z,101562.00
2023-05-09T02:30:08.627Z,101547.00
2023-05-09T02:32:38.702Z,101558.00
2023-05-09T02:35:09.400Z,101549.00
2023-05-09T02:37:38.071Z,101557.00
2023-05-09T02:40:09.248Z,101548.00
2023-05-09T02:42:36.539Z,101551.00
2023-05-09T02:45:03.593Z,101555.00
2023-05-09T02:47:30.498Z,101552.00
2023-05-09T02:49:57.421Z,101547.00
2023-05-09T02:52:24.374Z,101553.00
2023-05-09T02:54:51.668Z,101553.00
2023-05-09T02:57:18.533Z,101553.00
2023-05-09T02:59:45.497Z,101554.00
2023-05-09T03:02:12.321Z,101560.00
2023-05-09T03:04:39.356Z,101548.00
2023-05-09T03:07:06.223Z,101562.00
2023-05-09T03:09:33.224Z,101557.00
2023-05-09T03:12:00.050Z,101558.00
2023-05-09T03:14:26.966Z,101555.00
2023-05-09T03:16:53.763Z,101552.00
2023-05-09T03:19:20.669Z,101554.00
2023-05-09T03:21:47.626Z,101559.00
2023-05-09T03:24:14.498Z,101556.00
2023-05-09T03:26:41.412Z,101559.00
2023-05-09T03:29:08.260Z,101554.00
2023-05-09T03:31:36.004Z,101557.00
2023-05-09T03:34:02.859Z,101567.00
2023-05-09T03:36:30.189Z,101563.00
2023-05-09T03:38:57.074Z,101565.00
2023-05-09T03:41:23.935Z,101568.00
2023-05-09T03:43:50.782Z,101568.00
2023-05-09T03:46:17.707Z,101564.00
2023-05-09T03:48:44.549Z,101566.00
2023-05-09T03:51:11.389Z,101563.00
2023-05-09T03:53:38.241Z,101567.00
2023-05-09T03:56:05.430Z,101567.00
2023-05-09T03:58:32.288Z,101572.00
2023-05-09T04:00:59.153Z,101566.00
2023-05-09T04:03:26.940Z,101572.00
2023-05-09T04:05:54.774Z,101582.00
2023-05-09T04:08:21.740Z,101580.00
2023-05-09T04:10:50.487Z,101574.00
2023-05-09T04:13:17.412Z,101581.00
2023-05-09T04:15:44.422Z,101587.00
2023-05-09T04:18:11.309Z,101575.00
2023-05-09T04:20:38.135Z,101584.00
2023-05-09T04:23:05.031Z,101583.00
2023-05-09T04:25:31.842Z,101578.00
2023-05-09T04:27:58.651Z,101586.00
2023-05-09T04:30:27.172Z,101592.00
2023-05-09T04:32:55.426Z,101589.00
2023-05-09T04:35:22.814Z,101580.00
2023-05-09T04:37:49.931Z,101575.00
2023-05-09T04:40:16.913Z,101588.00
2023-05-09T04:42:43.751Z,101579.00
2023-05-09T04:45:11.815Z,101585.00
2023-05-09T04:47:38.851Z,101585.00
2023-05-09T04:50:06.601Z,101589.00
2023-05-09T04:52:33.487Z,101593.00
2023-05-09T04:55:00.903Z,101600.00
2023-05-09T04:57:27.928Z,101592.00
2023-05-09T04:59:54.945Z,101589.00
2023-05-09T05:02:22.327Z,101602.00
2023-05-09T05:04:49.278Z,101597.00
2023-05-09T05:07:16.151Z,101608.00
2023-05-09T05:09:43.000Z,101601.00
2023-05-09T05:12:10.025Z,101606.00
2023-05-09T05:14:37.155Z,101606.00
2023-05-09T05:17:04.016Z,101603.00
2023-05-09T05:19:30.929Z,101607.00
2023-05-09T05:21:57.779Z,101600.00
2023-05-09T05:24:24.615Z,101612.00
2023-05-09T05:26:51.427Z,101609.00
2023-05-09T05:29:18.401Z,101606.00
2023-05-09T05:31:45.315Z,101603.00
2023-05-09T05:34:12.396Z,101599.00
2023-05-09T05:36:39.265Z,101601.00
2023-05-09T05:39:06.201Z,101605.00
2023-05-09T05:41:33.042Z,101603.00
2023-05-09T05:43:59.874Z,101599.00
2023-05-09T05:46:26.714Z,101600.00
2023-05-09T05:48:53.586Z,101608.00
2023-05-09T05:51:20.768Z,101591.00
2023-05-09T05:53:47.661Z,101593.00
2023-05-09T05:56:14.606Z,101594.00
2023-05-09T05:58:41.412Z,101594.00
2023-05-09T06:01:08.384Z,101593.00
2023-05-09T06:03:35.329Z,101587.00
2023-05-09T06:06:02.458Z,101584.00
2023-05-09T06:08:29.322Z,101580.00
2023-05-09T06:10:56.132Z,101587.00
2023-05-09T06:13:22.957Z,101580.00
2023-05-09T06:15:49.820Z,101580.00
2023-05-09T06:18:16.770Z,101576.00
2023-05-09T06:20:43.591Z,101582.00
2023-05-09T06:23:10.484Z,101581.00
2023-05-09T06:25:37.324Z,101575.00
2023-05-09T06:28:04.300Z,101573.00
2023-05-09T06:30:31.126Z,101589.00
2023-05-09T06:32:58.348Z,101586.00
2023-05-09T06:35:25.350Z,101585.00
2023-05-09T06:37:52.158Z,101573.00
2023-05-09T06:40:19.318Z,101573.00
2023-05-09T06:42:46.169Z,101578.00
2023-05-09T06:45:13.335Z,101573.00
2023-05-09T06:47:40.680Z,101574.00
2023-05-09T06:50:08.765Z,101571.00
2023-05-09T06:52:35.962Z,101574.00
2023-05-09T06:55:03.810Z,101557.00
2023-05-09T06:57:30.765Z,101572.00
2023-05-09T06:59:57.600Z,101575.00
2023-05-09T07:02:24.487Z,101570.00
2023-05-09T07:04:51.416Z,101566.00
2023-05-09T07:07:18.368Z,101562.00
2023-05-09T07:09:45.225Z,101566.00
2023-05-09T07:12:12.097Z,101559.00
2023-05-09T07:14:38.944Z,101551.00
2023-05-09T07:17:22.150Z,101561.00
2023-05-09T07:19:51.353Z,101560.00
2023-05-09T07:22:18.321Z,101555.00
2023-05-09T07:24:46.387Z,101557.00
2023-05-09T07:27:13.705Z,101562.00
2023-05-09T07:29:40.643Z,101552.00
2023-05-09T07:32:07.887Z,101553.00
2023-05-09T07:34:35.961Z,101550.00
2023-05-09T07:37:02.855Z,101541.00
2023-05-09T07:39:29.780Z,101541.00
2023-05-09T07:41:56.651Z,101549.00
2023-05-09T07:44:23.721Z,101526.00
2023-05-09T07:46:50.593Z,101528.00
2023-05-09T07:49:17.493Z,101522.00
2023-05-09T07:51:44.346Z,101528.00
2023-05-09T07:54:11.758Z,101527.00
2023-05-09T07:56:38.600Z,101526.00
2023-05-09T07:59:05.659Z,101518.00
2023-05-09T08:01:32.524Z,101513.00
2023-05-09T08:03:59.513Z,101524.00
2023-05-09T08:06:26.631Z,101518.00
2023-05-09T08:08:53.469Z,101513.00
2023-05-09T08:11:20.333Z,101521.00
2023-05-09T08:13:48.144Z,101505.00
2023-05-09T08:16:17.318Z,101515.00
2023-05-09T08:18:44.916Z,101499.00
2023-05-09T08:21:12.140Z,101502.00
2023-05-09T08:23:40.550Z,101506.00
2023-05-09T08:26:07.481Z,101490.00
2023-05-09T08:28:34.316Z,101489.00
2023-05-09T08:31:01.180Z,101493.00
2023-05-09T08:33:28.133Z,101497.00
2023-05-09T08:35:56.272Z,101471.00
2023-05-09T08:38:24.341Z,101494.00
2023-05-09T08:40:51.301Z,101481.00
2023-05-09T08:43:21.254Z,101483.00
2023-05-09T08:46:13.680Z,101480.00
2023-05-09T08:48:43.331Z,101489.00
2023-05-09T08:51:12.027Z,101489.00
2023-05-09T08:53:39.026Z,101485.00
2023-05-09T08:56:06.802Z,101486.00
2023-05-09T08:58:34.605Z,101472.00
2023-05-09T09:01:06.812Z,101487.00
2023-05-09T09:03:34.080Z,101487.00
2023-05-09T09:06:02.105Z,101458.00
2023-05-09T09:08:30.130Z,101460.00
2023-05-09T09:10:56.983Z,101468.00
2023-05-09T09:13:24.684Z,101465.00
2023-05-09T09:15:54.027Z,101451.00
2023-05-09T09:18:30.035Z,101468.00
2023-05-09T09:21:02.348Z,101463.00
2023-05-09T09:23:31.000Z,101459.00
2023-05-09T09:26:04.954Z,101463.00
2023-05-09T09:28:32.574Z,101456.00
2023-05-09T09:30:59.520Z,101450.00
2023-05-09T09:33:29.371Z,101447.00
2023-05-09T09:35:57.099Z,101440.00
2023-05-09T09:38:25.076Z,101444.00
2023-05-09T09:40:51.884Z,101445.00
2023-05-09T09:43:19.374Z,101441.00
2023-05-09T09:45:53.440Z,101445.00
2023-05-09T09:48:31.210Z,101439.00
2023-05-09T09:51:04.059Z,101436.00
2023-05-09T09:53:38.481Z,101431.00
2023-05-09T09:56:05.754Z,101428.00
2023-05-09T09:58:32.599Z,101417.00
2023-05-09T10:01:11.077Z,101430.00
2023-05-09T10:03:40.716Z,101422.00
2023-05-09T10:06:15.249Z,101432.00
2023-05-09T10:08:46.735Z,101434.00
2023-05-09T10:11:14.326Z,101422.00
2023-05-09T10:13:42.591Z,101410.00
2023-05-09T10:16:10.585Z,101410.00
2023-05-09T10:18:40.738Z,101394.00
2023-05-09T10:21:12.075Z,101407.00
2023-05-09T10:23:47.097Z,101399.00
2023-05-09T10:26:31.890Z,101396.00
2023-05-09T10:29:04.824Z,101387.00
2023-05-09T10:31:37.030Z,101381.00
2023-05-09T10:34:12.014Z,101377.00
2023-05-09T10:36:39.058Z,101369.00
2023-05-09T10:39:07.867Z,101379.00
2023-05-09T10:41:36.962Z,101381.00
2023-05-09T10:44:04.110Z,101380.00
2023-05-09T10:46:31.415Z,101372.00
2023-05-09T10:48:59.149Z,101379.00
2023-05-09T10:51:27.673Z,101373.00
2023-05-09T10:53:56.177Z,101368.00
2023-05-09T10:56:39.834Z,101366.00
2023-05-09T10:59:06.883Z,101350.00
2023-05-09T11:01:35.227Z,101355.00
2023-05-09T11:04:11.396Z,101347.00
2023-05-09T11:06:46.253Z,101345.00
2023-05-09T11:09:29.549Z,101350.00
2023-05-09T11:12:16.732Z,101352.00
2023-05-09T11:14:52.003Z,101336.00
2023-05-09T11:17:21.808Z,101335.00
2023-05-09T11:19:51.694Z,101332.00
2023-05-09T11:22:32.387Z,101327.00
2023-05-09T11:25:14.566Z,101330.00
2023-05-09T11:27:46.909Z,101329.00
2023-05-09T11:30:20.061Z,101324.00
2023-05-09T11:32:55.549Z,101325.00
2023-05-09T11:35:26.757Z,101330.00
2023-05-09T11:38:00.204Z,101307.00
2023-05-09T11:40:29.854Z,101322.00
2023-05-09T11:42:59.082Z,101319.00
2023-05-09T11:45:32.228Z,101312.00
2023-05-09T11:48:01.106Z,101306.00
2023-05-09T11:50:28.414Z,101304.00
2023-05-09T11:52:55.424Z,101279.00
2023-05-09T11:55:22.907Z,101288.00
2023-05-09T11:57:53.270Z,101298.00
2023-05-09T12:00:23.471Z,101291.00
2023-05-09T12:02:52.459Z,101282.00
2023-05-09T12:05:22.778Z,101290.00
2023-05-09T12:07:50.773Z,101290.00
2023-05-09T12:10:25.482Z,101284.00
2023-05-09T12:12:55.658Z,101287.00
2023-05-09T12:15:23.147Z,101283.00
2023-05-09T12:18:05.266Z,101284.00
2023-05-09T12:20:51.179Z,101278.00
2023-05-09T12:23:19.199Z,101266.00
2023-05-09T12:25:57.553Z,101258.00
2023-05-09T12:28:26.496Z,101267.00
2023-05-09T12:30:55.029Z,101281.00
2023-05-09T12:33:22.422Z,101264.00
2023-05-09T12:36:03.145Z,101250.00
2023-05-09T12:38:30.347Z,101256.00
2023-05-09T12:41:15.369Z,101241.00
2023-05-09T12:43:51.440Z,101237.00
2023-05-09T12:46:20.207Z,101235.00
2023-05-09T12:48:48.632Z,101232.00
2023-05-09T12:51:22.709Z,101231.00
2023-05-09T12:53:50.041Z,101212.00
2023-05-09T12:56:20.165Z,101235.00
2023-05-09T12:58:54.251Z,101226.00
2023-05-09T13:01:27.332Z,101221.00
2023-05-09T13:04:06.313Z,101217.00
2023-05-09T13:06:34.581Z,101206.00
2023-05-09T13:09:05.899Z,101203.00
2023-05-09T13:11:32.954Z,101205.00
2023-05-09T13:14:00.346Z,101205.00
2023-05-09T13:16:27.641Z,101227.00
2023-05-09T13:18:54.515Z,101193.00
2023-05-09T13:21:21.401Z,101200.00
2023-05-09T13:23:50.082Z,101188.00
2023-05-09T13:26:17.050Z,101196.00
2023-05-09T13:28:43.850Z,101187.00
2023-05-09T13:31:11.200Z,101178.00
2023-05-09T13:33:38.185Z,101192.00
2023-05-09T13:36:06.267Z,101188.00
2023-05-09T13:38:36.953Z,101176.00
2023-05-09T13:41:03.831Z,101179.00
2023-05-09T13:43:30.772Z,101173.00
2023-05-09T13:45:57.737Z,101172.00
2023-05-09T13:48:24.662Z,101163.00
2023-05-09T13:50:51.935Z,101160.00
2023-05-09T13:53:18.967Z,101159.00
2023-05-09T13:55:46.368Z,101152.00
2023-05-09T13:58:13.392Z,101158.00
2023-05-09T14:00:40.690Z,101149.00
2023-05-09T14:03:07.729Z,101141.00
2023-05-09T14:05:34.840Z,101139.00
2023-05-09T14:08:01.771Z,101135.00
2023-05-09T14:10:29.355Z,101123.00
2023-05-09T14:12:56.999Z,101111.00
2023-05-09T14:15:23.934Z,101120.00
2023-05-09T14:17:50.955Z,101113.00
2023-05-09T14:20:18.288Z,101111.00
2023-05-09T14:22:45.246Z,101114.00
2023-05-09T14:25:12.489Z,101118.00
2023-05-09T14:27:39.370Z,101104.00
2023-05-09T14:30:07.158Z,101109.00
2023-05-09T14:32:34.068Z,101112.00
2023-05-09T14:35:01.079Z,101099.00
2023-05-09T14:37:29.458Z,101106.00
2023-05-09T14:39:56.501Z,101095.00
2023-05-09T14:42:23.368Z,101103.00
2023-05-09T14:44:50.316Z,101111.00
2023-05-09T14:47:17.662Z,101095.00
2023-05-09T14:49:44.561Z,101100.00
2023-05-09T14:52:11.440Z,101091.00
2023-05-09T14:54:38.356Z,101095.00
2023-05-09T14:57:07.325Z,101100.00
2023-05-09T14:59:36.673Z,101094.00
2023-05-09T15:02:04.071Z,101085.00
2023-05-09T15:04:31.272Z,101085.00
2023-05-09T15:06:58.936Z,101061.00
2023-05-09T15:09:26.494Z,101063.00
2023-05-09T15:11:54.008Z,101070.00
2023-05-09T15:14:20.836Z,101073.00
2023-05-09T15:16:48.368Z,101075.00
2023-05-09T15:19:15.263Z,101065.00
2023-05-09T15:21:42.098Z,101050.00
2023-05-09T15:24:09.071Z,101053.00
2023-05-09T15:26:35.890Z,101051.00
2023-05-09T15:29:02.826Z,101043.00
2023-05-09T15:31:33.547Z,101028.00
2023-05-09T15:34:01.370Z,101041.00
2023-05-09T15:36:32.132Z,101033.00
2023-05-09T15:38:59.134Z,101029.00
2023-05-09T15:41:26.018Z,101026.00
2023-05-09T15:43:53.046Z,101026.00
2023-05-09T15:46:19.985Z,101019.00
2023-05-09T15:48:47.278Z,101009.00
2023-05-09T15:51:14.228Z,101019.00
2023-05-09T15:53:41.366Z,101007.00
2023-05-09T15:56:08.919Z,101000.00
2023-05-09T15:58:36.715Z,101004.00
2023-05-09T16:01:06.245Z,101003.00
2023-05-09T16:03:33.772Z,100997.00
2023-05-09T16:06:01.249Z,100986.00
2023-05-09T16:08:28.128Z,101001.00
2023-05-09T16:10:55.095Z,100993.00
2023-05-09T16:13:22.490Z,100991.00
2023-05-09T16:15:50.128Z,100994.00
2023-05-09T16:18:17.084Z,100978.00
2023-05-09T16:20:44.086Z,100985.00
2023-05-09T16:23:11.598Z,100979.00
2023-05-09T16:25:38.714Z,100988.00
2023-05-09T16:28:07.076Z,100976.00
2023-05-09T16:30:34.388Z,100977.00
2023-05-09T16:33:01.323Z,100976.00
2023-05-09T16:35:28.833Z,100974.00
2023-05-09T16:37:55.733Z,100980.00
2023-05-09T16:40:22.676Z,100978.00
2023-05-09T16:42:49.601Z,100972.00
2023-05-09T16:45:16.593Z,100966.00
2023-05-09T16:47:43.557Z,100968.00
2023-05-09T16:50:11.057Z,100962.00
2023-05-09T16:52:38.015Z,100961.00
2023-05-09T16:55:05.723Z,100955.00
2023-05-09T16:57:33.301Z,100956.00
2023-05-09T17:00:00.219Z,100956.00
2023-05-09T17:02:27.302Z,100950.00
2023-05-09T17:04:54.697Z,100935.00
2023-05-09T17:07:21.650Z,100944.00
2023-05-09T17:09:49.547Z,100950.00
2023-05-09T17:12:18.113Z,100937.00
2023-05-09T17:14:48.349Z,100938.00
2023-05-09T17:17:17.577Z,100937.00
2023-05-09T17:19:47.443Z,100902.00
2023-05-09T17:22:14.327Z,100941.00
2023-05-09T17:24:41.410Z,100931.00
2023-05-09T17:27:08.726Z,100930.00
2023-05-09T17:29:36.282Z,100924.00
2023-05-09T17:32:03.265Z,100930.00
2023-05-09T17:34:30.139Z,100918.00
2023-05-09T17:36:57.017Z,100918.00
2023-05-09T17:39:24.040Z,100922.00
2023-05-09T17:41:51.103Z,100916.00
2023-05-09T17:44:21.017Z,100919.00
2023-05-09T17:46:49.068Z,100915.00
2023-05-09T17:49:16.826Z,100916.00
2023-05-09T17:51:44.150Z,100911.00
2023-05-09T17:54:11.803Z,100910.00
2023-05-09T17:56:38.741Z,100918.00
2023-05-09T17:59:05.555Z,100925.00
2023-05-09T18:01:32.664Z,100921.00
2023-05-09T18:03:59.742Z,100923.00
2023-05-09T18:06:26.685Z,100918.00
2023-05-09T18:08:53.536Z,100918.00
2023-05-09T18:11:20.883Z,100917.00
2023-05-09T18:13:48.316Z,100916.00
2023-05-09T18:16:15.223Z,100920.00
2023-05-09T18:18:42.288Z,100916.00
2023-05-09T18:21:09.651Z,100923.00
2023-05-09T18:23:37.108Z,100922.00
2023-05-09T18:26:04.372Z,100901.00
2023-05-09T18:28:38.990Z,100897.00
2023-05-09T18:31:09.606Z,100916.00
2023-05-09T18:33:39.466Z,100907.00
2023-05-09T18:36:11.566Z,100918.00
2023-05-09T18:38:39.356Z,100909.00
2023-05-09T18:41:11.703Z,100901.00
2023-05-09T18:43:45.822Z,100911.00
2023-05-09T18:46:20.618Z,100911.00
2023-05-09T18:48:51.358Z,100907.00
2023-05-09T18:51:19.788Z,100913.00
2023-05-09T18:53:47.481Z,100911.00
2023-05-09T18:56:14.757Z,100911.00
2023-05-09T18:58:41.615Z,100922.00
2023-05-09T19:01:11.552Z,100922.00
2023-05-09T19:03:45.848Z,100920.00
2023-05-09T19:06:15.223Z,100910.00
2023-05-09T19:08:43.406Z,100924.00
2023-05-09T19:11:11.691Z,100924.00
2023-05-09T19:13:48.288Z,100922.00
2023-05-09T19:16:17.182Z,100923.00
2023-05-09T19:18:44.094Z,100916.00
2023-05-09T19:21:13.351Z,100923.00
2023-05-09T19:23:40.272Z,100917.00
2023-05-09T19:26:07.238Z,100922.00
2023-05-09T19:28:35.472Z,100922.00
2023-05-09T19:31:02.426Z,100923.00
2023-05-09T19:33:29.274Z,100913.00
2023-05-09T19:35:56.116Z,100923.00
2023-05-09T19:38:23.016Z,100915.00
2023-05-09T19:40:50.895Z,100913.00
2023-05-09T19:43:17.835Z,100913.00
2023-05-09T19:45:44.956Z,100906.00
2023-05-09T19:48:15.295Z,100907.00
2023-05-09T19:50:43.430Z,100904.00
2023-05-09T19:53:10.668Z,100901.00
2023-05-09T19:55:37.958Z,100897.00
2023-05-09T19:58:05.027Z,100896.00
2023-05-09T20:00:32.257Z,100900.00
2023-05-09T20:02:59.201Z,100907.00
2023-05-09T20:05:27.345Z,100911.00
2023-05-09T20:07:54.163Z,100906.00
2023-05-09T20:10:21.261Z,100904.00
2023-05-09T20:12:48.395Z,100913.00
2023-05-09T20:15:15.594Z,100899.00
2023-05-09T20:17:42.655Z,100907.00
2023-05-09T20:20:10.892Z,100911.00
2023-05-09T20:22:37.913Z,100909.00
2023-05-09T20:25:05.495Z,100911.00
2023-05-09T20:27:32.447Z,100908.00
2023-05-09T20:29:59.325Z,100901.00
2023-05-09T20:32:26.663Z,100904.00
2023-05-09T20:34:53.920Z,100906.00
2023-05-09T20:37:20.801Z,100905.00
2023-05-09T20:39:47.724Z,100906.00
2023-05-09T20:42:15.014Z,100906.00
2023-05-09T20:44:42.222Z,100912.00
2023-05-09T20:47:09.052Z,100909.00
2023-05-09T20:49:35.976Z,100915.00
2023-05-09T20:52:02.878Z,100912.00
2023-05-09T20:54:30.881Z,100915.00
2023-05-09T20:56:57.773Z,100917.00
2023-05-09T20:59:24.676Z,100910.00
2023-05-09T21:01:52.222Z,100911.00
2023-05-09T21:04:19.159Z,100909.00
2023-05-09T21:06:46.180Z,100902.00
2023-05-09T21:09:13.206Z,100908.00
2023-05-09T21:11:40.263Z,100901.00
2023-05-09T21:14:08.666Z,100903.00
2023-05-09T21:16:35.541Z,100899.00
2023-05-09T21:19:04.834Z,100899.00
2023-05-09T21:21:33.174Z,100899.00
2023-05-09T21:24:04.084Z,100879.00
2023-05-09T21:26:31.078Z,100890.00
2023-05-09T21:28:57.930Z,100887.00
2023-05-09T21:31:24.832Z,100888.00
2023-05-09T21:33:52.057Z,100895.00
2023-05-09T21:36:18.925Z,100884.00
2023-05-09T21:38:45.756Z,100881.00
2023-05-09T21:41:12.657Z,100885.00
2023-05-09T21:43:39.543Z,100883.00
2023-05-09T21:46:06.433Z,100879.00
2023-05-09T21:48:33.367Z,100886.00
2023-05-09T21:51:04.040Z,100881.00
2023-05-09T21:53:31.034Z,100886.00
2023-05-09T21:55:57.851Z,100885.00
2023-05-09T21:58:24.780Z,100892.00
2023-05-09T22:00:51.646Z,100886.00
2023-05-09T22:03:18.571Z,100895.00
2023-05-09T22:05:45.509Z,100888.00
2023-05-09T22:08:12.401Z,100879.00
2023-05-09T22:10:39.321Z,100883.00
2023-05-09T22:13:06.459Z,100858.00
2023-05-09T22:15:33.389Z,100882.00
2023-05-09T22:18:03.425Z,100884.00
2023-05-09T22:20:30.309Z,100872.00
2023-05-09T22:22:57.155Z,100887.00
2023-05-09T22:25:24.033Z,100878.00
2023-05-09T22:27:50.865Z,100879.00
2023-05-09T22:30:17.992Z,100857.00
2023-05-09T22:32:45.031Z,100886.00
2023-05-09T22:35:12.429Z,100880.00
2023-05-09T22:37:39.268Z,100880.00
2023-05-09T22:40:07.136Z,100885.00
2023-05-09T22:42:34.833Z,100880.00
2023-05-09T22:45:02.438Z,100884.00
2023-05-09T22:47:29.310Z,100873.00
2023-05-09T22:49:56.267Z,100874.00
2023-05-09T22:52:23.113Z,100879.00
2023-05-09T22:54:49.956Z,100866.00
2023-05-09T22:57:18.964Z,100872.00
2023-05-09T22:59:46.606Z,100871.00
2023-05-09T23:02:13.653Z,100872.00
2023-05-09T23:04:41.134Z,100869.00
2023-05-09T23:07:07.986Z,100872.00
2023-05-09T23:09:34.950Z,100869.00
2023-05-09T23:12:05.534Z,100866.00
2023-05-09T23:14:32.536Z,100867.00
2023-05-09T23:16:59.348Z,100854.00
2023-05-09T23:19:26.194Z,100860.00
2023-05-09T23:21:53.343Z,100868.00
2023-05-09T23:24:20.278Z,100862.00
2023-05-09T23:26:47.189Z,100863.00
2023-05-09T23:29:14.969Z,100864.00
2023-05-09T23:31:41.902Z,100849.00
2023-05-09T23:34:08.799Z,100857.00
2023-05-09T23:36:35.603Z,100837.00
2023-05-09T23:39:02.529Z,100857.00
2023-05-09T23:41:29.593Z,100858.00
2023-05-09T23:43:58.054Z,100855.00
2023-05-09T23:46:25.064Z,100852.00
2023-05-09T23:48:51.973Z,100849.00
2023-05-09T23:51:20.507Z,100852.00
2023-05-09T23:53:47.479Z,100855.00
2023-05-09T23:56:14.922Z,100853.00
2023-05-09T23:58:41.779Z,100846.00
